Time;durP1;ratioP1;P1;durP2;ratioP2;P2;SDS_P1;SDS_P2;PMS_P1;PMS_P2;Temp;Humidity;BMP_temperature;BMP_pressure;BME280_temperature;BME280_humidity;BME280_pressure;Samples;Min_cycle;Max_cycle;Signal;HPM_P1;HPM_P2
2021/12/28 00:00:15;;;;;;;88.22;66.10;;;-1.50;99.90;;;;;;4857924;29;20411;-82
2021/12/28 00:02:44;;;;;;;89.40;67.25;;;-1.60;99.90;;;;;;4874399;29;20415;-81
2021/12/28 00:05:10;;;;;;;89.73;67.13;;;-1.60;99.90;;;;;;4875173;29;20410;-80
2021/12/28 00:07:37;;;;;;;93.35;67.05;;;-1.40;99.90;;;;;;4857488;29;20410;-80
2021/12/28 00:10:05;;;;;;;88.35;65.57;;;-1.60;99.90;;;;;;4877801;29;20477;-80
2021/12/28 00:12:33;;;;;;;90.22;67.07;;;-1.60;99.90;;;;;;4880382;29;20484;-80
2021/12/28 00:15:17;;;;;;;92.70;68.13;;;-1.70;99.90;;;;;;4881479;29;20453;-80
2021/12/28 00:17:59;;;;;;;90.00;66.53;;;-1.80;99.90;;;;;;4875646;29;20430;-80
2021/12/28 00:20:35;;;;;;;92.57;68.20;;;-1.80;99.90;;;;;;4876269;29;20402;-80
2021/12/28 00:23:03;;;;;;;91.00;69.40;;;-1.70;99.90;;;;;;4879294;29;20413;-79
2021/12/28 00:25:28;;;;;;;92.68;68.72;;;-1.80;99.90;;;;;;4877315;29;20402;-81
2021/12/28 00:27:54;;;;;;;91.18;68.45;;;-1.80;99.90;;;;;;4878648;29;20843;-82
2021/12/28 00:30:21;;;;;;;90.72;67.72;;;-1.90;99.90;;;;;;4877608;29;20376;-79
2021/12/28 00:32:52;;;;;;;95.32;70.13;;;-1.80;99.90;;;;;;4860081;29;20489;-80
2021/12/28 00:35:22;;;;;;;94.88;69.78;;;-1.90;99.90;;;;;;4878405;29;20419;-81
2021/12/28 00:37:47;;;;;;;92.97;68.65;;;-1.80;99.90;;;;;;4865233;29;20407;-79
2021/12/28 00:40:13;;;;;;;95.17;70.37;;;-2.00;99.90;;;;;;4877408;29;20546;-80
2021/12/28 00:42:39;;;;;;;93.23;70.03;;;-2.00;99.90;;;;;;4870314;29;20469;-81
2021/12/28 00:45:05;;;;;;;90.67;69.40;;;-2.00;99.90;;;;;;4869539;29;20395;-79
2021/12/28 00:47:31;;;;;;;95.93;71.22;;;-2.00;99.90;;;;;;4879390;29;20391;-81
2021/12/28 00:49:57;;;;;;;97.03;71.88;;;-2.10;99.90;;;;;;4887464;29;20732;-80
2021/12/28 00:52:23;;;;;;;95.75;71.13;;;-2.00;99.90;;;;;;4888143;29;20393;-81
2021/12/28 00:54:49;;;;;;;95.03;70.67;;;-2.10;99.90;;;;;;4888246;29;20948;-81
2021/12/28 00:57:15;;;;;;;101.50;75.13;;;-1.90;99.90;;;;;;4888495;29;20393;-80
2021/12/28 00:59:40;;;;;;;98.80;73.32;;;-1.70;99.90;;;;;;4881227;29;20399;-81
2021/12/28 01:02:06;;;;;;;95.80;71.43;;;-1.70;99.90;;;;;;4879057;29;20403;-79
2021/12/28 01:04:32;;;;;;;95.78;74.10;;;-2.20;99.90;;;;;;4877835;29;20395;-80
2021/12/28 01:06:58;;;;;;;98.97;73.55;;;-2.20;99.90;;;;;;4877410;29;20402;-79
2021/12/28 01:09:30;;;;;;;100.50;74.95;;;-2.10;99.90;;;;;;4877952;29;20398;-80
2021/12/28 01:11:57;;;;;;;98.57;74.07;;;-2.20;99.90;;;;;;4878726;29;20414;-79
2021/12/28 01:14:25;;;;;;;98.75;75.18;;;-2.10;99.90;;;;;;4876288;29;20402;-80
2021/12/28 01:16:50;;;;;;;103.10;75.65;;;-2.10;99.90;;;;;;4880869;29;20467;-80
2021/12/28 01:19:16;;;;;;;100.18;75.57;;;-2.10;99.90;;;;;;4880758;29;20395;-81
2021/12/28 01:21:42;;;;;;;98.50;72.87;;;-2.10;99.90;;;;;;4874267;29;20898;-80
2021/12/28 01:24:07;;;;;;;100.73;74.70;;;-1.90;99.90;;;;;;4880128;29;20410;-82
2021/12/28 01:26:33;;;;;;;101.63;75.00;;;-1.90;99.90;;;;;;4880887;29;20399;-80
2021/12/28 01:28:59;;;;;;;99.03;74.97;;;-1.90;99.90;;;;;;4881231;29;20391;-80
2021/12/28 01:31:25;;;;;;;98.80;72.80;;;-1.50;99.90;;;;;;4879950;29;20387;-79
2021/12/28 01:34:08;;;;;;;100.03;73.13;;;-1.60;99.90;;;;;;4877151;29;20395;-83
2021/12/28 01:36:35;;;;;;;97.03;72.22;;;-1.60;99.90;;;;;;4876325;29;20427;-79
2021/12/28 01:39:04;;;;;;;97.03;72.55;;;-1.60;99.90;;;;;;4878789;29;20391;-80
2021/12/28 01:41:29;;;;;;;98.82;74.82;;;-1.60;99.90;;;;;;4877844;29;20411;-82
2021/12/28 01:44:03;;;;;;;102.40;74.70;;;-1.50;99.90;;;;;;4877342;29;20455;-80
2021/12/28 01:46:29;;;;;;;98.28;71.82;;;-1.50;99.90;;;;;;4877702;29;20463;-80
2021/12/28 01:49:00;;;;;;;99.60;74.45;;;-1.20;99.90;;;;;;4876708;29;20455;-80
2021/12/28 01:51:29;;;;;;;97.38;72.82;;;-1.60;99.90;;;;;;4876981;29;20410;-80
2021/12/28 01:53:57;;;;;;;94.35;71.13;;;-1.60;99.90;;;;;;4873907;29;20470;-82
2021/12/28 01:56:34;;;;;;;100.03;73.30;;;-1.50;99.90;;;;;;4876335;29;20419;-81
2021/12/28 01:59:00;;;;;;;101.03;73.63;;;-1.60;99.90;;;;;;4876699;29;20403;-79
2021/12/28 02:01:26;;;;;;;99.32;73.50;;;-1.40;99.90;;;;;;4877252;29;20435;-80
2021/12/28 02:03:53;;;;;;;99.90;73.33;;;-1.50;99.90;;;;;;4880146;29;20390;-80
2021/12/28 02:06:18;;;;;;;96.15;72.18;;;-1.30;99.90;;;;;;4881779;29;20387;-79
2021/12/28 02:08:44;;;;;;;99.07;73.37;;;-1.60;99.90;;;;;;4880274;29;20493;-79
2021/12/28 02:11:12;;;;;;;98.27;72.40;;;-1.50;99.90;;;;;;4881355;29;20473;-79
2021/12/28 02:13:38;;;;;;;100.43;73.97;;;-1.20;99.90;;;;;;4881426;29;20387;-80
2021/12/28 02:16:05;;;;;;;94.88;72.10;;;-1.10;99.90;;;;;;4881364;29;20418;-78
2021/12/28 02:18:32;;;;;;;102.82;74.85;;;-1.50;99.90;;;;;;4883194;29;20398;-80
2021/12/28 02:21:01;;;;;;;100.38;74.35;;;-1.30;99.90;;;;;;4882596;29;20391;-80
2021/12/28 02:23:30;;;;;;;99.82;73.43;;;-1.30;99.90;;;;;;4881069;29;20747;-80
2021/12/28 02:25:56;;;;;;;100.93;74.40;;;-1.30;99.90;;;;;;4880434;29;20407;-81
2021/12/28 02:28:21;;;;;;;97.70;73.80;;;-1.60;99.90;;;;;;4880701;29;20414;-81
2021/12/28 02:30:50;;;;;;;102.73;75.23;;;-1.90;99.90;;;;;;4880787;29;20413;-82
2021/12/28 02:33:17;;;;;;;97.45;73.32;;;-1.90;99.90;;;;;;4878170;29;20719;-83
2021/12/28 02:35:43;;;;;;;99.40;73.88;;;-1.50;99.90;;;;;;4881001;29;20433;-81
2021/12/28 02:38:11;;;;;;;103.80;75.05;;;-1.60;99.90;;;;;;4881022;29;20417;-80
2021/12/28 02:40:39;;;;;;;97.78;73.25;;;-1.90;99.90;;;;;;4880332;29;20904;-80
2021/12/28 02:43:07;;;;;;;101.57;73.78;;;-1.80;99.90;;;;;;4879194;29;20410;-82
2021/12/28 02:45:47;;;;;;;102.13;74.95;;;-1.80;99.90;;;;;;4880454;29;20754;-80
2021/12/28 02:48:13;;;;;;;104.30;75.32;;;-1.90;99.90;;;;;;4881013;29;20399;-80
2021/12/28 02:50:48;;;;;;;104.22;75.82;;;-1.90;99.90;;;;;;4880144;29;20413;-81
2021/12/28 02:53:14;;;;;;;98.43;72.88;;;-2.10;99.90;;;;;;4881348;29;20396;-82
2021/12/28 02:55:40;;;;;;;100.25;74.00;;;-2.00;99.90;;;;;;4881216;29;20426;-79
2021/12/28 02:58:11;;;;;;;103.82;75.57;;;-1.60;99.90;;;;;;4879890;29;20495;-83
2021/12/28 03:00:47;;;;;;;101.57;74.80;;;-1.40;99.90;;;;;;4881284;29;20402;-79
2021/12/28 03:03:16;;;;;;;98.85;73.30;;;-2.20;99.90;;;;;;4880972;29;20407;-82
2021/12/28 03:05:44;;;;;;;98.80;73.75;;;-1.50;99.90;;;;;;4881318;29;20398;-81
2021/12/28 03:08:11;;;;;;;100.43;74.78;;;-1.60;99.90;;;;;;4880969;29;20391;-80
2021/12/28 03:10:39;;;;;;;98.03;73.50;;;-1.80;99.90;;;;;;4882394;29;20387;-79
2021/12/28 03:13:06;;;;;;;99.00;71.70;;;-1.70;99.90;;;;;;4884759;29;20399;-79
2021/12/28 03:15:32;;;;;;;99.82;72.97;;;-1.70;99.90;;;;;;4881010;29;20414;-80
2021/12/28 03:17:57;;;;;;;98.22;72.25;;;-2.10;99.90;;;;;;4883620;29;20829;-81
2021/12/28 03:20:24;;;;;;;98.65;73.63;;;-1.40;99.90;;;;;;4883653;29;20414;-81
2021/12/28 03:22:50;;;;;;;101.60;74.25;;;-1.90;99.90;;;;;;4882887;29;20387;-80
2021/12/28 03:25:17;;;;;;;100.28;73.78;;;-1.70;99.90;;;;;;4879160;29;20393;-82
2021/12/28 03:27:43;;;;;;;100.65;72.53;;;-2.10;99.90;;;;;;4879086;29;20414;-81
2021/12/28 03:30:13;;;;;;;99.57;73.57;;;-2.10;99.90;;;;;;4881274;29;20438;-81
2021/12/28 03:32:40;;;;;;;100.32;73.90;;;-1.80;99.90;;;;;;4879438;29;20920;-81
2021/12/28 03:35:07;;;;;;;97.97;72.03;;;-1.50;99.90;;;;;;4881274;29;20403;-80
2021/12/28 03:37:34;;;;;;;101.97;74.28;;;-1.80;99.90;;;;;;4880732;29;20799;-81
2021/12/28 03:40:00;;;;;;;100.50;74.20;;;-1.70;99.90;;;;;;4880282;29;20387;-82
2021/12/28 03:42:26;;;;;;;104.05;75.35;;;-1.60;99.90;;;;;;4878717;29;20482;-80
2021/12/28 03:44:52;;;;;;;101.90;74.57;;;-2.00;99.90;;;;;;4879425;29;20528;-81
2021/12/28 03:47:17;;;;;;;100.25;73.65;;;-2.10;99.90;;;;;;4881437;29;20396;-81
2021/12/28 03:49:43;;;;;;;102.17;73.40;;;-1.90;99.90;;;;;;4879565;29;20391;-80
2021/12/28 03:52:09;;;;;;;103.18;73.88;;;-2.00;99.90;;;;;;4880275;29;20900;-80
2021/12/28 03:54:35;;;;;;;99.40;73.00;;;-1.80;99.90;;;;;;4880071;29;20403;-79
2021/12/28 03:57:01;;;;;;;101.53;75.38;;;-2.10;99.90;;;;;;4879310;29;20460;-79
2021/12/28 03:59:27;;;;;;;99.47;74.37;;;-2.00;99.90;;;;;;4880961;29;20930;-81
2021/12/28 04:01:53;;;;;;;99.63;72.28;;;-2.00;99.90;;;;;;4883165;29;20438;-79
2021/12/28 04:04:19;;;;;;;104.07;75.25;;;-1.90;99.90;;;;;;4881551;29;20894;-79
2021/12/28 04:06:45;;;;;;;100.35;74.90;;;-1.90;99.90;;;;;;4881598;29;20409;-81
2021/12/28 04:09:12;;;;;;;99.47;72.70;;;-2.00;99.90;;;;;;4882550;29;20412;-79
2021/12/28 04:11:38;;;;;;;101.28;74.07;;;-2.00;99.90;;;;;;4879298;29;20442;-79
2021/12/28 04:14:06;;;;;;;102.68;73.85;;;-2.10;99.90;;;;;;4880690;29;20373;-80
2021/12/28 04:16:33;;;;;;;99.20;73.67;;;-1.90;99.90;;;;;;4880275;29;20410;-80
2021/12/28 04:19:00;;;;;;;103.03;74.50;;;-2.10;99.90;;;;;;4879911;29;20391;-79
2021/12/28 04:21:26;;;;;;;96.35;70.18;;;-1.90;99.90;;;;;;4879684;29;20387;-80
2021/12/28 04:23:52;;;;;;;100.20;73.95;;;-1.80;99.90;;;;;;4879509;29;20954;-80
2021/12/28 04:26:19;;;;;;;102.85;73.13;;;-1.90;99.90;;;;;;4878058;29;20403;-81
2021/12/28 04:28:45;;;;;;;99.78;72.15;;;-1.80;99.90;;;;;;4880036;29;20403;-81
2021/12/28 04:31:11;;;;;;;96.50;72.72;;;-1.80;99.90;;;;;;4878114;29;20965;-80
2021/12/28 04:33:38;;;;;;;101.22;73.50;;;-1.80;99.90;;;;;;4878340;29;20916;-81
2021/12/28 04:36:09;;;;;;;95.20;70.50;;;-1.80;99.90;;;;;;4878732;29;20422;-79
2021/12/28 04:38:36;;;;;;;103.43;74.97;;;-1.60;99.90;;;;;;4878854;29;20394;-80
2021/12/28 04:41:02;;;;;;;99.30;71.28;;;-1.70;99.90;;;;;;4878880;29;20402;-80
2021/12/28 04:43:29;;;;;;;102.25;73.60;;;-1.70;99.90;;;;;;4876966;29;20823;-81
2021/12/28 04:45:55;;;;;;;98.75;72.35;;;-1.60;99.90;;;;;;4877273;29;20395;-81
2021/12/28 04:48:20;;;;;;;97.72;72.88;;;-1.30;99.90;;;;;;4878083;29;20410;-80
2021/12/28 04:50:46;;;;;;;98.63;72.80;;;-1.70;99.90;;;;;;4877705;29;20395;-80
2021/12/28 04:53:12;;;;;;;99.00;72.03;;;-1.70;99.90;;;;;;4879263;29;20409;-80
2021/12/28 04:55:44;;;;;;;102.70;73.10;;;-1.50;99.90;;;;;;4876315;29;20428;-80
2021/12/28 04:58:12;;;;;;;99.68;72.03;;;-1.50;99.90;;;;;;4876796;29;20418;-81
2021/12/28 05:00:39;;;;;;;102.80;73.55;;;-1.50;99.90;;;;;;4879466;29;20470;-82
2021/12/28 05:03:05;;;;;;;98.82;71.10;;;-1.50;99.90;;;;;;4877023;29;20750;-80
2021/12/28 05:05:31;;;;;;;99.15;71.55;;;-1.50;99.90;;;;;;4876677;29;20466;-81
2021/12/28 05:07:57;;;;;;;100.00;72.13;;;-1.10;99.90;;;;;;4879084;29;20870;-80
2021/12/28 05:10:23;;;;;;;101.45;73.68;;;-1.30;99.90;;;;;;4877249;29;20405;-79
2021/12/28 05:12:50;;;;;;;97.10;72.57;;;-1.40;99.90;;;;;;4879800;29;20411;-79
2021/12/28 05:15:17;;;;;;;100.78;73.55;;;-1.30;99.90;;;;;;4878642;29;20429;-79
2021/12/28 05:17:43;;;;;;;100.82;72.40;;;-1.20;99.90;;;;;;4880530;29;20463;-81
2021/12/28 05:20:09;;;;;;;98.55;73.13;;;-1.30;99.90;;;;;;4878975;29;20402;-80
2021/12/28 05:22:35;;;;;;;98.55;72.72;;;-1.30;99.90;;;;;;4879990;29;20420;-79
2021/12/28 05:25:01;;;;;;;103.27;74.13;;;-1.20;99.90;;;;;;4877385;29;20454;-80
2021/12/28 05:27:27;;;;;;;98.32;72.18;;;-1.30;99.90;;;;;;4878507;29;20431;-81
2021/12/28 05:29:53;;;;;;;96.00;71.32;;;-1.20;99.90;;;;;;4880135;29;20398;-80
2021/12/28 05:32:18;;;;;;;96.35;70.28;;;-1.20;99.90;;;;;;4879505;29;20387;-80
2021/12/28 05:34:44;;;;;;;103.20;72.28;;;-1.20;99.90;;;;;;4879256;29;20395;-80
2021/12/28 05:37:10;;;;;;;100.60;74.10;;;-1.20;99.90;;;;;;4878229;29;20918;-79
2021/12/28 05:39:36;;;;;;;98.97;71.20;;;-1.10;99.90;;;;;;4882680;29;20394;-82
2021/12/28 05:42:02;;;;;;;98.30;71.85;;;-1.10;99.90;;;;;;4879116;29;20481;-81
2021/12/28 05:44:28;;;;;;;98.25;73.50;;;-1.20;99.90;;;;;;4878174;29;20458;-83
2021/12/28 05:46:54;;;;;;;97.65;71.50;;;-1.20;99.90;;;;;;4878030;29;20494;-83
2021/12/28 05:49:21;;;;;;;101.85;72.78;;;-1.20;99.90;;;;;;4879492;29;20446;-82
2021/12/28 05:51:46;;;;;;;100.13;70.43;;;-1.20;99.90;;;;;;4879045;29;20989;-82
2021/12/28 05:54:13;;;;;;;97.90;71.83;;;-0.80;99.90;;;;;;4878835;29;20482;-81
2021/12/28 05:56:39;;;;;;;97.70;72.07;;;-1.10;99.90;;;;;;4879042;29;20422;-82
2021/12/28 05:59:05;;;;;;;98.47;71.55;;;-1.20;99.90;;;;;;4878918;29;20395;-83
2021/12/28 06:01:31;;;;;;;98.55;72.38;;;-1.10;99.90;;;;;;4881962;29;20395;-81
2021/12/28 06:03:56;;;;;;;96.80;71.40;;;-1.10;99.90;;;;;;4884091;29;20394;-80
2021/12/28 06:06:22;;;;;;;101.10;73.10;;;-1.00;99.90;;;;;;4882981;29;20446;-80
2021/12/28 06:08:47;;;;;;;95.77;71.43;;;-1.00;99.90;;;;;;4882082;29;20403;-80
2021/12/28 06:11:13;;;;;;;99.00;72.60;;;-1.10;99.90;;;;;;4884423;29;20383;-80
2021/12/28 06:13:43;;;;;;;101.72;71.45;;;-1.00;99.90;;;;;;4880863;29;20399;-81
2021/12/28 06:16:10;;;;;;;98.40;72.68;;;-1.00;99.90;;;;;;4882574;29;20426;-81
2021/12/28 06:18:36;;;;;;;101.25;74.03;;;-1.00;99.90;;;;;;4881449;29;20399;-81
2021/12/28 06:21:02;;;;;;;102.35;73.60;;;-1.00;99.90;;;;;;4881894;29;20387;-82
2021/12/28 06:23:28;;;;;;;102.45;72.78;;;-0.90;99.90;;;;;;4879139;29;20924;-80
2021/12/28 06:25:53;;;;;;;101.32;73.68;;;-1.00;99.90;;;;;;4880178;29;20908;-80
2021/12/28 06:28:19;;;;;;;98.43;73.03;;;-1.00;99.90;;;;;;4878570;29;20414;-81
2021/12/28 06:30:45;;;;;;;102.57;72.00;;;-0.90;99.90;;;;;;4880070;29;20398;-80
2021/12/28 06:33:11;;;;;;;98.47;71.88;;;-0.80;99.90;;;;;;4879171;29;20395;-80
2021/12/28 06:35:37;;;;;;;103.50;74.20;;;-0.70;99.90;;;;;;4879840;29;20932;-81
2021/12/28 06:38:02;;;;;;;103.03;74.53;;;-0.80;99.90;;;;;;4879857;29;20402;-80
2021/12/28 06:40:28;;;;;;;101.00;72.83;;;-0.90;99.90;;;;;;4879542;29;20451;-82
2021/12/28 06:42:54;;;;;;;98.20;72.30;;;-0.90;99.90;;;;;;4880443;29;20434;-80
2021/12/28 06:45:20;;;;;;;99.43;73.17;;;-0.80;99.90;;;;;;4883892;29;20902;-82
2021/12/28 06:47:46;;;;;;;101.40;72.55;;;-1.10;99.90;;;;;;4881536;29;20406;-79
2021/12/28 06:50:12;;;;;;;104.55;73.85;;;-0.90;99.90;;;;;;4878648;29;20389;-80
2021/12/28 06:52:39;;;;;;;100.77;73.17;;;-0.90;99.90;;;;;;4877363;29;20414;-82
2021/12/28 06:55:07;;;;;;;102.38;73.95;;;-0.90;99.90;;;;;;4879747;29;20458;-82
2021/12/28 06:57:33;;;;;;;104.03;75.50;;;-0.80;99.90;;;;;;4879003;29;20446;-81
2021/12/28 06:59:59;;;;;;;99.78;73.00;;;-0.90;99.90;;;;;;4878332;29;20407;-80
2021/12/28 07:02:24;;;;;;;98.87;73.30;;;-0.80;99.90;;;;;;4877670;29;20400;-80
2021/12/28 07:04:52;;;;;;;98.73;72.67;;;-0.70;99.90;;;;;;4877650;29;20391;-81
2021/12/28 07:07:18;;;;;;;97.70;70.60;;;-0.70;99.90;;;;;;4878664;29;20402;-81
2021/12/28 07:09:44;;;;;;;101.78;74.50;;;-0.30;99.90;;;;;;4879901;29;20394;-81
2021/12/28 07:12:10;;;;;;;103.20;73.82;;;-0.60;99.90;;;;;;4879173;29;20407;-82
2021/12/28 07:14:36;;;;;;;99.50;72.80;;;-0.60;99.90;;;;;;4879246;29;21260;-80
2021/12/28 07:17:02;;;;;;;99.55;73.30;;;-0.40;99.90;;;;;;4881306;29;20426;-80
2021/12/28 07:19:27;;;;;;;99.18;73.07;;;-0.60;99.90;;;;;;4881354;29;20383;-82
2021/12/28 07:21:53;;;;;;;102.75;73.70;;;-0.60;99.90;;;;;;4877252;29;20493;-81
2021/12/28 07:24:20;;;;;;;102.35;73.40;;;-0.40;99.90;;;;;;4877167;29;20906;-82
2021/12/28 07:26:46;;;;;;;105.32;75.57;;;-0.40;99.90;;;;;;4879964;29;20467;-80
2021/12/28 07:29:12;;;;;;;102.82;75.65;;;-0.60;99.90;;;;;;4878071;29;20395;-81
2021/12/28 07:31:39;;;;;;;101.80;74.43;;;-0.50;99.90;;;;;;4878076;29;20424;-82
2021/12/28 07:34:04;;;;;;;101.73;74.07;;;-0.50;99.90;;;;;;4877983;29;20399;-81
2021/12/28 07:36:30;;;;;;;99.10;70.90;;;-0.60;99.90;;;;;;4879545;29;21005;-80
2021/12/28 07:38:56;;;;;;;99.28;72.60;;;-0.10;99.90;;;;;;4880011;29;20792;-80
2021/12/28 07:41:22;;;;;;;102.72;70.97;;;0.00;99.90;;;;;;4877667;29;21169;-80
2021/12/28 07:43:48;;;;;;;99.72;72.90;;;0.00;99.90;;;;;;4877104;29;20498;-82
2021/12/28 07:46:14;;;;;;;103.20;74.07;;;-0.10;99.90;;;;;;4876147;29;20422;-80
2021/12/28 07:48:41;;;;;;;101.72;74.78;;;0.10;99.90;;;;;;4883302;29;20391;-80
2021/12/28 07:51:07;;;;;;;101.88;73.97;;;0.10;99.90;;;;;;4880468;29;20426;-82
2021/12/28 07:53:33;;;;;;;100.17;72.50;;;-0.20;99.90;;;;;;4880519;29;20438;-82
2021/12/28 07:56:02;;;;;;;106.37;75.43;;;-0.40;99.90;;;;;;4880746;29;20407;-81
2021/12/28 07:58:28;;;;;;;101.22;73.32;;;-0.40;99.90;;;;;;4880882;29;20382;-82
2021/12/28 08:00:54;;;;;;;101.15;72.90;;;-0.30;99.90;;;;;;4879147;29;20931;-81
2021/12/28 08:03:22;;;;;;;98.40;72.55;;;-0.30;99.90;;;;;;4878705;29;20419;-81
2021/12/28 08:05:48;;;;;;;97.63;71.10;;;-0.40;99.90;;;;;;4881495;29;20427;-81
2021/12/28 08:08:15;;;;;;;98.22;72.05;;;0.50;99.90;;;;;;4881024;29;20447;-81
2021/12/28 08:10:40;;;;;;;101.35;71.45;;;0.00;99.90;;;;;;4880327;29;20450;-81
2021/12/28 08:13:06;;;;;;;97.57;71.00;;;0.10;99.90;;;;;;4878306;29;20421;-82
2021/12/28 08:15:32;;;;;;;96.57;71.93;;;0.50;99.90;;;;;;4877474;29;20419;-82
2021/12/28 08:17:57;;;;;;;98.47;72.13;;;0.20;99.90;;;;;;4877213;29;20399;-81
2021/12/28 08:20:23;;;;;;;94.93;69.63;;;0.10;99.90;;;;;;4875478;29;20395;-80
2021/12/28 08:22:50;;;;;;;99.50;71.93;;;0.50;99.90;;;;;;4879414;29;20385;-81
2021/12/28 08:25:18;;;;;;;98.73;71.10;;;0.60;99.90;;;;;;4877038;29;21085;-81
2021/12/28 08:27:45;;;;;;;99.03;71.30;;;0.10;99.90;;;;;;4875850;29;20387;-81
2021/12/28 08:30:13;;;;;;;100.15;72.28;;;0.20;99.90;;;;;;4878536;29;20415;-82
2021/12/28 08:32:39;;;;;;;97.35;71.25;;;0.60;99.90;;;;;;4878973;29;20434;-80
2021/12/28 08:35:06;;;;;;;98.22;71.18;;;0.60;99.90;;;;;;4880368;29;20394;-80
2021/12/28 08:37:32;;;;;;;98.35;71.22;;;0.40;99.90;;;;;;4880339;29;20399;-81
2021/12/28 08:39:58;;;;;;;97.70;70.75;;;0.40;99.90;;;;;;4878329;29;20411;-80
2021/12/28 08:42:23;;;;;;;98.60;70.30;;;0.30;99.90;;;;;;4879185;29;20391;-82
2021/12/28 08:44:50;;;;;;;98.63;69.20;;;0.50;99.90;;;;;;4880172;29;20458;-81
2021/12/28 08:47:16;;;;;;;96.88;69.05;;;0.70;99.90;;;;;;4867228;29;20450;-81
2021/12/28 08:49:42;;;;;;;96.80;69.38;;;0.60;99.90;;;;;;4863015;29;20422;-83
2021/12/28 08:52:08;;;;;;;95.78;67.57;;;0.60;99.90;;;;;;4882564;29;20491;-81
2021/12/28 08:54:34;;;;;;;97.38;70.40;;;0.60;99.90;;;;;;4881000;29;20405;-80
2021/12/28 08:57:00;;;;;;;95.20;69.23;;;0.70;99.90;;;;;;4880157;29;20418;-82
2021/12/28 08:59:28;;;;;;;93.57;68.03;;;0.80;99.90;;;;;;4878845;29;20406;-82
2021/12/28 09:01:56;;;;;;;96.13;68.55;;;0.80;99.90;;;;;;4878154;29;20402;-81
2021/12/28 09:04:22;;;;;;;94.78;68.80;;;0.90;99.90;;;;;;4862182;29;20430;-82
2021/12/28 09:06:48;;;;;;;93.15;67.68;;;0.70;99.90;;;;;;4861057;29;20894;-80
2021/12/28 09:09:14;;;;;;;95.77;70.43;;;0.50;99.90;;;;;;4877277;29;20431;-82
2021/12/28 09:11:42;;;;;;;95.03;69.05;;;0.60;99.90;;;;;;4878162;29;20779;-85
2021/12/28 09:14:08;;;;;;;91.20;66.25;;;0.60;99.90;;;;;;4877675;29;20407;-81
2021/12/28 09:16:33;;;;;;;94.88;68.68;;;0.70;99.90;;;;;;4877452;29;20933;-83
2021/12/28 09:18:59;;;;;;;95.37;69.00;;;0.80;99.90;;;;;;4875019;29;20738;-86
2021/12/28 09:21:25;;;;;;;94.63;68.40;;;1.00;99.90;;;;;;4857723;29;20771;-83
2021/12/28 09:23:50;;;;;;;96.03;69.27;;;0.90;99.90;;;;;;4859576;29;20395;-81
2021/12/28 09:26:16;;;;;;;95.03;68.33;;;1.00;99.90;;;;;;4859921;29;20426;-82
2021/12/28 09:28:42;;;;;;;96.10;68.13;;;1.00;99.90;;;;;;4877732;29;20414;-81
2021/12/28 09:31:07;;;;;;;94.00;66.97;;;0.80;99.90;;;;;;4876018;29;20443;-81
2021/12/28 09:33:33;;;;;;;93.80;67.77;;;0.80;99.90;;;;;;4876625;29;20460;-84
2021/12/28 09:36:00;;;;;;;95.90;68.27;;;0.80;99.90;;;;;;4875260;29;20423;-84
2021/12/28 09:38:26;;;;;;;98.70;68.93;;;0.80;99.90;;;;;;4876438;29;20462;-81
2021/12/28 09:40:53;;;;;;;96.57;69.63;;;0.80;99.90;;;;;;4859135;29;20898;-81
2021/12/28 09:43:19;;;;;;;93.70;67.95;;;0.90;99.90;;;;;;4876372;29;20395;-80
2021/12/28 09:45:45;;;;;;;94.03;68.57;;;1.00;99.90;;;;;;4875309;29;20877;-82
2021/12/28 09:48:11;;;;;;;93.03;68.05;;;0.90;99.90;;;;;;4877355;29;20420;-81
2021/12/28 09:50:39;;;;;;;94.50;68.43;;;0.80;99.90;;;;;;4860552;29;20391;-80
2021/12/28 09:53:06;;;;;;;96.10;67.43;;;1.10;99.90;;;;;;4875913;29;20509;-83
2021/12/28 09:55:32;;;;;;;94.72;68.97;;;1.10;99.90;;;;;;4858634;29;20494;-83
2021/12/28 09:57:59;;;;;;;95.78;68.80;;;1.20;99.90;;;;;;4859643;29;20390;-83
2021/12/28 10:00:25;;;;;;;94.78;68.50;;;0.90;99.90;;;;;;4859110;29;21039;-83
2021/12/28 10:02:52;;;;;;;96.38;68.40;;;0.90;99.90;;;;;;4877396;29;20454;-82
2021/12/28 10:05:23;;;;;;;91.57;66.77;;;0.90;99.90;;;;;;4860036;29;20431;-81
2021/12/28 10:07:56;;;;;;;94.47;67.22;;;1.10;99.90;;;;;;4875626;29;20395;-81
2021/12/28 10:10:24;;;;;;;100.05;70.95;;;1.00;99.90;;;;;;4858778;29;20482;-81
2021/12/28 10:12:53;;;;;;;101.22;70.32;;;0.80;99.90;;;;;;4859638;29;20410;-83
2021/12/28 10:15:23;;;;;;;99.95;71.88;;;0.90;99.90;;;;;;4873094;29;20427;-82
2021/12/28 10:17:55;;;;;;;101.72;72.63;;;1.20;99.90;;;;;;4857994;29;20395;-85
2021/12/28 10:20:26;;;;;;;104.05;72.70;;;0.90;99.90;;;;;;4868944;29;20395;-83
2021/12/28 10:22:58;;;;;;;110.10;76.18;;;1.10;99.90;;;;;;4892023;29;20389;-81
2021/12/28 10:25:31;;;;;;;100.05;73.85;;;1.40;99.90;;;;;;4894422;29;20393;-82
2021/12/28 10:28:13;;;;;;;103.78;73.53;;;1.00;99.90;;;;;;4877765;29;20453;-80
2021/12/28 10:30:45;;;;;;;111.93;77.38;;;0.90;99.90;;;;;;4876757;29;20805;-81
2021/12/28 10:33:16;;;;;;;109.72;78.32;;;0.80;99.90;;;;;;4876349;29;20566;-82
2021/12/28 10:35:57;;;;;;;111.38;78.32;;;1.00;99.90;;;;;;4895269;29;20485;-82
2021/12/28 10:38:32;;;;;;;103.75;74.55;;;1.20;99.90;;;;;;4878730;29;20406;-81
2021/12/28 10:41:00;;;;;;;98.35;71.95;;;1.30;99.90;;;;;;4873506;29;20395;-82
2021/12/28 10:43:29;;;;;;;99.53;72.68;;;1.20;99.90;;;;;;4859984;29;20397;-82
2021/12/28 10:46:01;;;;;;;101.90;73.70;;;1.50;99.90;;;;;;4860836;29;20894;-82
2021/12/28 10:48:32;;;;;;;99.80;71.55;;;1.20;99.90;;;;;;4877231;29;20423;-82
2021/12/28 10:51:05;;;;;;;96.82;70.22;;;1.20;99.90;;;;;;4876905;29;20391;-83
2021/12/28 10:54:26;;;;;;;96.60;68.47;;;1.30;99.90;;;;;;4874511;29;20399;-83
2021/12/28 10:56:59;;;;;;;95.45;68.40;;;1.40;99.90;;;;;;4874359;29;20823;-83
2021/12/28 10:59:32;;;;;;;95.68;68.15;;;1.40;99.90;;;;;;4875986;29;20858;-82
2021/12/28 11:01:57;;;;;;;94.28;68.10;;;1.60;99.90;;;;;;4876233;29;20458;-81
2021/12/28 11:04:34;;;;;;;89.70;65.35;;;1.70;99.90;;;;;;4876000;29;20415;-82
2021/12/28 11:07:06;;;;;;;89.45;64.95;;;1.70;99.90;;;;;;4875419;29;20467;-80
2021/12/28 11:09:32;;;;;;;89.25;65.95;;;1.80;99.90;;;;;;4869834;29;20410;-81
2021/12/28 11:11:58;;;;;;;89.43;64.47;;;1.80;99.90;;;;;;4860778;29;20422;-82
2021/12/28 11:14:27;;;;;;;87.25;62.65;;;1.80;99.90;;;;;;4876891;29;20470;-82
2021/12/28 11:16:59;;;;;;;85.25;61.70;;;1.90;99.90;;;;;;4859637;29;20427;-81
2021/12/28 11:19:30;;;;;;;82.60;61.08;;;2.10;99.90;;;;;;4876423;29;20464;-82
2021/12/28 11:21:58;;;;;;;83.97;61.05;;;1.80;99.90;;;;;;4876748;29;20403;-81
2021/12/28 11:24:30;;;;;;;82.93;60.10;;;1.90;99.90;;;;;;4860279;29;20423;-82
2021/12/28 11:26:56;;;;;;;79.03;58.27;;;2.10;99.90;;;;;;4860232;29;20425;-80
2021/12/28 11:29:41;;;;;;;80.30;59.10;;;2.10;99.90;;;;;;4876149;29;20407;-81
2021/12/28 11:32:16;;;;;;;79.97;60.00;;;2.10;99.90;;;;;;4873702;29;20460;-82
2021/12/28 11:34:42;;;;;;;81.55;59.03;;;2.20;99.90;;;;;;4876349;29;20391;-82
2021/12/28 11:37:09;;;;;;;81.70;58.45;;;2.10;99.90;;;;;;4890029;29;20417;-81
2021/12/28 11:39:45;;;;;;;81.85;59.47;;;2.30;99.90;;;;;;4879192;29;20985;-81
2021/12/28 11:42:14;;;;;;;81.20;58.73;;;2.10;99.90;;;;;;4859976;29;21009;-81
2021/12/28 11:44:39;;;;;;;79.07;57.88;;;2.00;99.90;;;;;;4876360;29;20387;-81
2021/12/28 11:47:08;;;;;;;76.90;57.43;;;2.10;99.90;;;;;;4877866;29;20414;-82
2021/12/28 11:49:35;;;;;;;75.50;56.60;;;2.30;99.90;;;;;;4875920;29;20403;-80
2021/12/28 11:52:04;;;;;;;76.63;55.75;;;2.20;99.90;;;;;;4875876;29;20485;-82
2021/12/28 11:54:34;;;;;;;77.68;56.25;;;2.10;99.90;;;;;;4859036;29;20407;-81
2021/12/28 11:57:11;;;;;;;76.70;56.37;;;2.10;99.90;;;;;;4876517;29;20419;-81
2021/12/28 11:59:39;;;;;;;77.47;56.13;;;2.10;99.90;;;;;;4876745;29;20390;-81
2021/12/28 12:02:07;;;;;;;74.57;53.70;;;2.10;99.90;;;;;;4875379;29;20419;-81
2021/12/28 12:04:32;;;;;;;76.17;55.13;;;2.10;99.90;;;;;;4875365;29;20485;-81
2021/12/28 12:06:58;;;;;;;70.57;54.00;;;2.20;99.90;;;;;;4871044;29;20440;-81
2021/12/28 12:09:26;;;;;;;72.47;53.90;;;2.30;99.90;;;;;;4869042;29;20761;-81
2021/12/28 12:12:13;;;;;;;72.80;53.88;;;2.40;99.90;;;;;;4871616;29;20419;-82
2021/12/28 12:14:54;;;;;;;73.25;53.13;;;2.60;99.90;;;;;;4872599;29;20395;-81
2021/12/28 12:19:55;;;;;;;69.35;52.42;;;2.50;99.90;;;;;;4857165;29;20393;-82
2021/12/28 12:22:44;;;;;;;72.07;52.50;;;2.50;99.90;;;;;;4870630;29;20935;-81
2021/12/28 12:25:17;;;;;;;75.00;53.53;;;2.50;99.90;;;;;;4872427;29;20387;-82
2021/12/28 12:27:56;;;;;;;71.60;52.78;;;2.50;99.90;;;;;;4871705;29;20426;-81
2021/12/28 12:30:25;;;;;;;70.85;51.17;;;2.50;99.90;;;;;;4866044;29;20412;-82
2021/12/28 12:33:02;;;;;;;70.45;52.42;;;2.50;99.90;;;;;;4863043;29;20421;-81